createdAt,value
2023-02-25T00:00:37.358Z,6.10
2023-02-25T00:03:19.921Z,7.30
2023-02-25T00:05:50.991Z,8.10
2023-02-25T00:08:22.092Z,6.60
2023-02-25T00:10:59.253Z,7.20
2023-02-25T00:13:30.667Z,7.20
2023-02-25T00:16:03.759Z,7.30
2023-02-25T00:18:35.042Z,6.60
2023-02-25T00:21:07.815Z,6.30
2023-02-25T00:23:38.766Z,7.60
2023-02-25T00:26:10.048Z,7.30
2023-02-25T00:28:41.672Z,7.20
2023-02-25T00:31:14.340Z,8.30
2023-02-25T00:33:45.944Z,6.00
2023-02-25T00:36:20.561Z,6.20
2023-02-25T00:38:52.206Z,6.20
2023-02-25T00:41:24.248Z,6.20
2023-02-25T00:43:55.827Z,7.30
2023-02-25T00:46:27.260Z,6.50
2023-02-25T00:48:58.954Z,6.00
2023-02-25T00:51:31.418Z,5.30
2023-02-25T00:54:02.453Z,6.60
2023-02-25T00:56:33.562Z,6.60
2023-02-25T00:59:04.741Z,6.20
2023-02-25T01:01:38.755Z,6.20
2023-02-25T01:04:10.372Z,5.60
2023-02-25T01:06:42.213Z,6.20
2023-02-25T01:09:15.614Z,6.30
2023-02-25T01:11:47.684Z,6.10
2023-02-25T01:14:20.261Z,6.60
2023-02-25T01:16:52.122Z,6.40
2023-02-25T01:19:25.258Z,6.80
2023-02-25T01:21:57.087Z,6.10
2023-02-25T01:24:29.352Z,6.60
2023-02-25T01:27:00.813Z,6.70
2023-02-25T01:29:32.337Z,8.10
2023-02-25T01:32:04.066Z,7.20
2023-02-25T01:34:35.337Z,7.90
2023-02-25T01:37:07.041Z,7.50
2023-02-25T01:39:40.593Z,7.70
2023-02-25T01:42:15.337Z,7.20
2023-02-25T01:45:05.736Z,6.80
2023-02-25T01:47:38.138Z,8.60
2023-02-25T01:50:10.314Z,7.60
2023-02-25T01:52:42.853Z,8.00
2023-02-25T01:55:14.336Z,7.50
2023-02-25T01:57:45.626Z,7.70
2023-02-25T02:00:17.803Z,8.40
2023-02-25T02:02:50.585Z,8.20
2023-02-25T02:05:22.543Z,9.10
2023-02-25T02:07:53.593Z,9.60
2023-02-25T02:10:24.420Z,8.30
2023-02-25T02:12:57.815Z,9.50
2023-02-25T02:15:29.265Z,9.00
2023-02-25T02:18:02.298Z,8.60
2023-02-25T02:20:39.753Z,9.00
2023-02-25T02:23:22.495Z,8.30
2023-02-25T02:26:06.099Z,8.00
2023-02-25T02:29:04.430Z,8.20
2023-02-25T02:31:55.000Z,8.10
2023-02-25T02:34:31.890Z,8.20
2023-02-25T02:37:07.298Z,8.50
2023-02-25T02:39:46.264Z,6.80
2023-02-25T02:42:22.368Z,8.20
2023-02-25T02:44:57.305Z,8.30
2023-02-25T02:47:29.987Z,8.90
2023-02-25T02:50:07.594Z,7.30
2023-02-25T02:52:40.557Z,8.10
2023-02-25T02:55:22.639Z,9.10
2023-02-25T02:57:57.128Z,7.80
2023-02-25T03:00:29.921Z,7.40
2023-02-25T03:03:03.906Z,9.20
2023-02-25T03:05:36.478Z,8.30
2023-02-25T03:08:08.745Z,8.90
2023-02-25T03:10:40.266Z,8.60
2023-02-25T03:13:10.832Z,8.10
2023-02-25T03:15:43.308Z,8.20
2023-02-25T03:18:19.424Z,8.30
2023-02-25T03:20:51.930Z,8.10
2023-02-25T03:23:25.265Z,8.40
2023-02-25T03:26:02.162Z,8.80
2023-02-25T03:28:34.152Z,9.70
2023-02-25T03:31:07.793Z,9.20
2023-02-25T03:33:41.499Z,8.40
2023-02-25T03:36:14.827Z,8.70
2023-02-25T03:38:47.983Z,8.40
2023-02-25T03:41:20.002Z,8.10
2023-02-25T03:43:54.519Z,9.20
2023-02-25T03:46:26.910Z,7.70
2023-02-25T03:48:57.821Z,10.50
2023-02-25T03:51:30.918Z,10.10
2023-02-25T03:54:02.782Z,10.30
2023-02-25T03:56:43.796Z,11.00
2023-02-25T03:59:15.605Z,10.60
2023-02-25T04:01:48.501Z,9.30
2023-02-25T04:04:19.059Z,9.70
2023-02-25T04:06:50.502Z,9.50
2023-02-25T04:09:21.397Z,9.60
2023-02-25T04:11:57.462Z,10.70
2023-02-25T04:14:28.135Z,9.80
2023-02-25T04:16:59.433Z,9.50
2023-02-25T04:19:30.779Z,8.90
2023-02-25T04:22:02.340Z,10.50
2023-02-25T04:24:33.378Z,10.10
2023-02-25T04:27:04.670Z,10.70
2023-02-25T04:29:35.268Z,11.80
2023-02-25T04:32:06.549Z,11.80
2023-02-25T04:34:37.336Z,10.30
2023-02-25T04:37:09.604Z,9.20
2023-02-25T04:39:40.441Z,10.60
2023-02-25T04:42:11.580Z,9.50
2023-02-25T04:44:43.438Z,11.40
2023-02-25T04:47:14.480Z,9.90
2023-02-25T04:49:46.153Z,10.10
2023-02-25T04:52:17.466Z,11.40
2023-02-25T04:54:48.316Z,10.20
2023-02-25T04:57:19.361Z,10.60
2023-02-25T04:59:50.809Z,10.60
2023-02-25T05:02:21.719Z,10.10
2023-02-25T05:04:52.377Z,10.20
2023-02-25T05:07:23.537Z,9.00
2023-02-25T05:09:54.316Z,7.50
2023-02-25T05:12:25.436Z,5.50
2023-02-25T05:14:56.133Z,5.20
2023-02-25T05:17:27.076Z,5.90
2023-02-25T05:19:59.143Z,5.30
2023-02-25T05:22:30.213Z,5.00
2023-02-25T05:25:00.905Z,5.70
2023-02-25T05:27:31.953Z,5.20
2023-02-25T05:30:02.798Z,5.60
2023-02-25T05:32:34.323Z,5.80
2023-02-25T05:35:05.616Z,6.00
2023-02-25T05:37:37.022Z,5.70
2023-02-25T05:40:09.761Z,6.20
2023-02-25T05:42:40.955Z,6.50
2023-02-25T05:45:12.780Z,6.30
2023-02-25T05:47:43.992Z,5.90
2023-02-25T05:50:15.271Z,7.20
2023-02-25T05:52:47.262Z,6.30
2023-02-25T05:55:18.237Z,6.80
2023-02-25T05:57:49.556Z,7.40
2023-02-25T06:00:21.760Z,7.40
2023-02-25T06:02:52.773Z,6.70
2023-02-25T06:05:23.489Z,8.40
2023-02-25T06:07:54.543Z,7.80
2023-02-25T06:10:25.707Z,7.20
2023-02-25T06:12:56.863Z,8.70
2023-02-25T06:15:27.551Z,8.60
2023-02-25T06:17:58.865Z,8.90
2023-02-25T06:20:29.782Z,8.20
2023-02-25T06:23:00.899Z,8.80
2023-02-25T06:25:31.727Z,9.90
2023-02-25T06:28:03.567Z,9.20
2023-02-25T06:30:34.309Z,9.30
2023-02-25T06:33:05.392Z,9.70
2023-02-25T06:35:36.785Z,12.00
2023-02-25T06:38:08.053Z,11.10
2023-02-25T06:40:39.210Z,11.30
2023-02-25T06:43:10.472Z,11.70
2023-02-25T06:45:41.276Z,11.70
2023-02-25T06:48:12.789Z,11.00
2023-02-25T06:50:43.484Z,11.80
2023-02-25T06:53:14.695Z,12.60
2023-02-25T06:55:45.317Z,12.00
2023-02-25T06:58:18.132Z,11.50
2023-02-25T07:00:48.741Z,10.60
2023-02-25T07:03:19.870Z,10.90
2023-02-25T07:05:51.061Z,11.10
2023-02-25T07:08:22.223Z,11.10
2023-02-25T07:10:53.297Z,10.20
2023-02-25T07:13:24.680Z,10.60
2023-02-25T07:15:55.261Z,9.30
2023-02-25T07:18:26.608Z,10.60
2023-02-25T07:20:58.698Z,10.50
2023-02-25T07:23:30.569Z,9.60
2023-02-25T07:26:03.123Z,9.10
2023-02-25T07:28:34.377Z,9.10
2023-02-25T07:31:06.322Z,9.30
2023-02-25T07:33:37.618Z,8.10
2023-02-25T07:36:08.841Z,8.90
2023-02-25T07:38:41.517Z,9.70
2023-02-25T07:41:12.782Z,10.90
2023-02-25T07:43:44.224Z,8.80
2023-02-25T07:46:16.737Z,8.90
2023-02-25T07:48:48.225Z,9.00
2023-02-25T07:51:21.463Z,8.30
2023-02-25T07:56:22.780Z,6.60
2023-02-25T07:58:53.723Z,6.90
2023-02-25T08:01:26.099Z,6.60
2023-02-25T08:03:58.034Z,5.30
2023-02-25T08:06:28.674Z,3.90
2023-02-25T08:08:59.569Z,3.80
2023-02-25T08:11:30.357Z,4.40
2023-02-25T08:14:02.387Z,3.90
2023-02-25T08:16:33.793Z,3.20
2023-02-25T08:19:05.387Z,3.10
2023-02-25T08:21:37.295Z,3.20
2023-02-25T08:24:09.227Z,3.20
2023-02-25T08:26:41.221Z,3.20
2023-02-25T08:29:12.324Z,3.20
2023-02-25T08:31:43.551Z,3.20
2023-02-25T08:34:14.841Z,2.80
2023-02-25T08:36:45.724Z,3.50
2023-02-25T08:39:17.391Z,4.30
2023-02-25T08:41:48.579Z,3.50
2023-02-25T08:44:20.394Z,3.10
2023-02-25T08:46:51.853Z,3.50
2023-02-25T08:49:24.206Z,2.90
2023-02-25T08:51:55.037Z,2.70
2023-02-25T08:54:26.390Z,2.90
2023-02-25T08:56:57.478Z,2.20
2023-02-25T08:59:28.529Z,3.60
2023-02-25T09:01:59.247Z,2.60
2023-02-25T09:04:30.386Z,2.90
2023-02-25T09:07:01.232Z,2.50
2023-02-25T09:09:32.429Z,2.70
2023-02-25T09:12:05.319Z,2.90
2023-02-25T09:14:36.808Z,2.70
2023-02-25T09:17:08.952Z,2.50
2023-02-25T09:19:40.261Z,2.80
2023-02-25T09:22:11.568Z,2.80
2023-02-25T09:24:43.013Z,2.50
2023-02-25T09:27:13.890Z,2.40
2023-02-25T09:29:45.215Z,2.70
2023-02-25T09:32:18.149Z,2.30
2023-02-25T09:34:49.629Z,2.00
2023-02-25T09:37:21.745Z,2.90
2023-02-25T09:39:52.906Z,2.30
2023-02-25T09:42:24.721Z,2.30
2023-02-25T09:44:58.862Z,2.50
2023-02-25T09:47:32.373Z,2.90
2023-02-25T09:50:06.537Z,2.50
2023-02-25T09:52:40.655Z,2.80
2023-02-25T09:55:18.364Z,2.00
2023-02-25T09:57:54.634Z,2.70
2023-02-25T10:00:26.305Z,2.60
2023-02-25T10:03:00.946Z,2.20
2023-02-25T10:05:36.263Z,2.30
2023-02-25T10:08:10.418Z,3.10
2023-02-25T10:10:47.439Z,2.60
2023-02-25T10:13:23.888Z,2.40
2023-02-25T10:15:58.930Z,1.70
2023-02-25T10:18:35.416Z,2.60
2023-02-25T10:21:10.703Z,2.40
2023-02-25T10:23:49.378Z,2.00
2023-02-25T10:26:21.443Z,2.20
2023-02-25T10:28:55.175Z,2.00
2023-02-25T10:31:28.081Z,1.70
2023-02-25T10:33:59.716Z,2.00
2023-02-25T10:36:33.067Z,2.30
2023-02-25T10:39:04.687Z,2.30
2023-02-25T10:41:37.028Z,2.30
2023-02-25T10:44:08.016Z,1.80
2023-02-25T10:46:48.675Z,1.50
2023-02-25T10:49:26.091Z,1.80
2023-02-25T10:52:03.227Z,1.80
2023-02-25T10:54:35.108Z,1.70
2023-02-25T10:57:10.671Z,1.70
2023-02-25T10:59:43.461Z,1.30
2023-02-25T11:02:23.732Z,1.30
2023-02-25T11:04:54.982Z,1.80
2023-02-25T11:07:30.016Z,1.60
2023-02-25T11:10:16.634Z,2.10
2023-02-25T11:12:49.340Z,1.70
2023-02-25T11:15:46.188Z,1.20
2023-02-25T11:18:23.524Z,1.30
2023-02-25T11:20:56.089Z,1.60
2023-02-25T11:23:31.251Z,1.60
2023-02-25T11:26:01.851Z,1.60
2023-02-25T11:28:36.403Z,1.70
2023-02-25T11:31:09.764Z,1.80
2023-02-25T11:33:42.660Z,1.50
2023-02-25T11:36:14.004Z,1.60
2023-02-25T11:38:53.384Z,1.90
2023-02-25T11:41:29.188Z,1.80
2023-02-25T11:44:12.727Z,1.60
2023-02-25T11:46:45.482Z,1.50
2023-02-25T11:49:20.040Z,1.80
2023-02-25T11:51:54.905Z,1.90
2023-02-25T11:54:31.759Z,1.90
2023-02-25T11:57:09.206Z,1.90
2023-02-25T11:59:47.581Z,2.40
2023-02-25T12:02:25.081Z,1.90
2023-02-25T12:05:00.299Z,1.70
2023-02-25T12:07:59.970Z,1.80
2023-02-25T12:11:01.469Z,1.90
2023-02-25T12:13:46.653Z,2.00
2023-02-25T12:16:40.948Z,2.10
2023-02-25T12:19:32.491Z,2.50
2023-02-25T12:22:27.635Z,2.20
2023-02-25T12:25:07.458Z,2.10
2023-02-25T12:28:00.862Z,1.90
2023-02-25T12:30:50.339Z,2.00
2023-02-25T12:33:32.101Z,1.70
2023-02-25T12:36:09.613Z,2.20
2023-02-25T12:39:00.411Z,1.30
2023-02-25T12:41:41.048Z,1.70
2023-02-25T12:44:32.369Z,0.90
2023-02-25T12:47:07.230Z,1.00
2023-02-25T12:50:01.047Z,1.20
2023-02-25T12:52:39.063Z,1.60
2023-02-25T12:55:19.037Z,1.60
2023-02-25T12:57:53.134Z,2.00
2023-02-25T13:00:40.482Z,2.00
2023-02-25T13:03:26.022Z,1.90
2023-02-25T13:06:01.713Z,2.10
2023-02-25T13:08:46.159Z,1.50
2023-02-25T13:11:22.737Z,1.80
2023-02-25T13:14:02.341Z,2.00
2023-02-25T13:16:38.470Z,2.40
2023-02-25T13:19:16.955Z,2.30
2023-02-25T13:21:59.826Z,2.30
2023-02-25T13:24:39.717Z,3.00
2023-02-25T13:27:30.886Z,3.00
2023-02-25T13:30:12.357Z,3.20
2023-02-25T13:32:48.554Z,3.30
2023-02-25T13:35:23.509Z,2.80
2023-02-25T13:38:02.290Z,2.60
2023-02-25T13:40:44.292Z,2.60
2023-02-25T13:43:31.518Z,2.40
2023-02-25T13:46:07.444Z,2.40
2023-02-25T13:48:49.930Z,2.20
2023-02-25T13:51:43.438Z,2.40
2023-02-25T13:54:28.955Z,2.30
2023-02-25T13:57:05.896Z,2.10
2023-02-25T13:59:52.457Z,2.60
2023-02-25T14:02:43.000Z,3.60
2023-02-25T14:05:27.307Z,2.30
2023-02-25T14:08:09.429Z,3.20
2023-02-25T14:10:46.526Z,2.50
2023-02-25T14:13:25.757Z,3.30
2023-02-25T14:16:00.352Z,2.90
2023-02-25T14:18:48.587Z,2.70
2023-02-25T14:21:35.648Z,2.70
2023-02-25T14:24:10.519Z,2.30
2023-02-25T14:26:45.614Z,2.00
2023-02-25T14:29:22.150Z,1.90
2023-02-25T14:32:11.843Z,2.90
2023-02-25T14:34:51.749Z,3.80
2023-02-25T14:37:32.988Z,1.90
2023-02-25T14:40:22.617Z,2.20
2023-02-25T14:43:01.856Z,2.50
2023-02-25T14:45:36.745Z,2.30
2023-02-25T14:48:12.126Z,2.70
2023-02-25T14:50:45.281Z,2.30
2023-02-25T14:53:28.708Z,3.10
2023-02-25T14:56:08.996Z,2.40
2023-02-25T14:58:53.561Z,2.70
2023-02-25T15:01:41.155Z,3.00
2023-02-25T15:04:28.855Z,3.60
2023-02-25T15:07:08.281Z,3.30
2023-02-25T15:09:49.468Z,3.70
2023-02-25T15:12:28.934Z,2.60
2023-02-25T15:15:10.044Z,3.20
2023-02-25T15:18:18.608Z,3.00
2023-02-25T15:20:49.778Z,2.70
2023-02-25T15:23:21.694Z,2.60
2023-02-25T15:25:55.749Z,2.90
2023-02-25T15:28:42.734Z,1.80
2023-02-25T15:31:39.250Z,2.70
2023-02-25T15:34:42.192Z,3.00
2023-02-25T15:37:19.809Z,2.30
2023-02-25T15:39:53.291Z,2.40
2023-02-25T15:42:56.245Z,2.40
2023-02-25T15:45:44.072Z,2.20
2023-02-25T15:48:33.319Z,2.50
2023-02-25T15:51:06.531Z,2.60
2023-02-25T15:56:39.140Z,2.40
2023-02-25T15:59:09.761Z,2.90
2023-02-25T16:01:46.989Z,2.70
2023-02-25T16:04:35.977Z,2.80
2023-02-25T16:07:09.197Z,3.50
2023-02-25T16:09:41.614Z,3.50
2023-02-25T16:12:15.263Z,3.10
2023-02-25T16:17:21.067Z,3.20
2023-02-25T16:19:55.386Z,3.60
2023-02-25T16:22:27.788Z,3.20
2023-02-25T16:25:06.287Z,4.20
2023-02-25T16:27:51.443Z,3.50
2023-02-25T16:30:29.423Z,4.00
2023-02-25T16:33:10.311Z,4.20
2023-02-25T16:35:43.073Z,4.10
2023-02-25T16:38:20.614Z,4.10
2023-02-25T16:40:56.107Z,4.00
2023-02-25T16:43:29.096Z,4.50
2023-02-25T16:46:01.505Z,4.50
2023-02-25T16:48:34.376Z,3.20
2023-02-25T16:51:10.650Z,3.70
2023-02-25T16:53:44.330Z,3.70
2023-02-25T16:56:20.233Z,4.10
2023-02-25T16:59:02.735Z,3.90
2023-02-25T17:01:39.953Z,3.40
2023-02-25T17:04:20.224Z,3.70
2023-02-25T17:07:04.376Z,3.20
2023-02-25T17:09:40.145Z,3.60
2023-02-25T17:12:15.542Z,4.00
2023-02-25T17:14:47.528Z,3.50
2023-02-25T17:17:30.045Z,3.90
2023-02-25T17:20:02.514Z,4.00
2023-02-25T17:22:33.736Z,4.10
2023-02-25T17:25:06.748Z,4.00
2023-02-25T17:27:42.788Z,4.50
2023-02-25T17:30:27.592Z,4.20
2023-02-25T17:32:59.315Z,3.70
2023-02-25T17:35:35.930Z,3.50
2023-02-25T17:38:07.131Z,4.30
2023-02-25T17:40:42.175Z,4.00
2023-02-25T17:43:23.657Z,4.60
2023-02-25T17:45:59.521Z,4.40
2023-02-25T17:48:31.684Z,4.10
2023-02-25T17:51:06.413Z,4.20
2023-02-25T17:53:43.056Z,4.40
2023-02-25T17:56:17.398Z,4.70
2023-02-25T17:58:49.339Z,4.20
2023-02-25T18:01:24.968Z,5.20
2023-02-25T18:04:06.604Z,6.10
2023-02-25T18:06:43.198Z,4.80
2023-02-25T18:09:34.749Z,5.40
2023-02-25T18:12:11.875Z,5.30
2023-02-25T18:14:45.970Z,4.20
2023-02-25T18:17:22.431Z,5.00
2023-02-25T18:19:55.566Z,5.60
2023-02-25T18:22:32.245Z,6.10
2023-02-25T18:25:08.363Z,6.40
2023-02-25T18:27:44.118Z,7.30
2023-02-25T18:30:20.632Z,6.70
2023-02-25T18:32:57.772Z,6.30
2023-02-25T18:35:34.024Z,5.80
2023-02-25T18:38:13.663Z,6.80
2023-02-25T18:40:44.603Z,6.20
2023-02-25T18:43:16.770Z,6.60
2023-02-25T18:45:53.356Z,6.30
2023-02-25T18:48:24.790Z,5.90
2023-02-25T18:51:06.519Z,7.30
2023-02-25T18:53:47.118Z,7.50
2023-02-25T18:56:18.313Z,7.30
2023-02-25T18:58:49.732Z,7.10
2023-02-25T19:01:24.508Z,7.50
2023-02-25T19:04:00.110Z,8.80
2023-02-25T19:06:36.771Z,9.40
2023-02-25T19:09:07.924Z,6.90
2023-02-25T19:11:43.518Z,7.30
2023-02-25T19:14:25.558Z,8.10
2023-02-25T19:17:05.594Z,7.50
2023-02-25T19:19:46.964Z,7.10
2023-02-25T19:22:18.015Z,7.30
2023-02-25T19:24:49.880Z,7.20
2023-02-25T19:27:26.694Z,7.00
2023-02-25T19:30:03.377Z,7.30
2023-02-25T19:32:38.095Z,6.40
2023-02-25T19:35:10.807Z,7.60
2023-02-25T19:37:43.854Z,6.70
2023-02-25T19:40:20.316Z,6.90
2023-02-25T19:42:51.177Z,5.60
2023-02-25T19:45:23.584Z,5.30
2023-02-25T19:47:54.875Z,5.00
2023-02-25T19:50:31.304Z,5.60
2023-02-25T19:53:04.369Z,4.60
2023-02-25T19:55:36.284Z,4.50
2023-02-25T19:58:07.021Z,6.20
2023-02-25T20:00:38.858Z,4.70
2023-02-25T20:03:10.594Z,6.30
2023-02-25T20:05:41.878Z,6.70
2023-02-25T20:08:13.232Z,6.20
2023-02-25T20:10:44.892Z,6.50
2023-02-25T20:13:15.982Z,6.10
2023-02-25T20:15:50.821Z,6.00
2023-02-25T20:18:27.034Z,6.60
2023-02-25T20:21:04.461Z,6.90
2023-02-25T20:23:40.265Z,7.20
2023-02-25T20:26:12.841Z,6.20
2023-02-25T20:28:53.938Z,7.60
2023-02-25T20:31:29.579Z,7.50
2023-02-25T20:34:01.524Z,7.10
2023-02-25T20:36:33.353Z,6.80
2023-02-25T20:39:16.739Z,9.00
2023-02-25T20:41:48.300Z,7.90
2023-02-25T20:44:19.258Z,7.00
2023-02-25T20:46:50.706Z,8.80
2023-02-25T20:49:21.448Z,8.20
2023-02-25T20:51:58.081Z,9.60
2023-02-25T20:54:29.259Z,10.40
2023-02-25T20:57:10.680Z,8.90
2023-02-25T20:59:50.910Z,9.10
2023-02-25T21:02:26.832Z,8.70
2023-02-25T21:04:58.085Z,8.00
2023-02-25T21:07:32.722Z,8.10
2023-02-25T21:10:10.892Z,10.00
2023-02-25T21:12:41.914Z,9.40
2023-02-25T21:15:18.121Z,9.30
2023-02-25T21:17:53.015Z,8.50
2023-02-25T21:20:24.492Z,9.70
2023-02-25T21:22:55.260Z,9.10
2023-02-25T21:25:26.258Z,9.10
2023-02-25T21:27:56.980Z,8.90
2023-02-25T21:30:28.044Z,9.80
2023-02-25T21:32:59.085Z,9.80
2023-02-25T21:35:30.051Z,9.00
2023-02-25T21:38:04.742Z,9.40
2023-02-25T21:40:36.799Z,9.90
2023-02-25T21:43:07.306Z,11.20
2023-02-25T21:45:44.147Z,11.20
2023-02-25T21:48:15.274Z,9.80
2023-02-25T21:50:50.192Z,9.90
2023-02-25T21:53:21.821Z,10.10
2023-02-25T21:55:53.084Z,9.80
2023-02-25T21:58:24.034Z,10.40
2023-02-25T22:00:54.948Z,9.30
2023-02-25T22:03:25.853Z,9.50
2023-02-25T22:05:56.901Z,10.70
2023-02-25T22:08:27.569Z,11.10
2023-02-25T22:10:58.633Z,11.40
2023-02-25T22:13:32.892Z,9.80
2023-02-25T22:16:05.215Z,10.20
2023-02-25T22:18:36.416Z,10.30
2023-02-25T22:21:09.615Z,11.50
2023-02-25T22:23:40.816Z,10.50
2023-02-25T22:26:12.996Z,10.10
2023-02-25T22:28:44.519Z,11.70
2023-02-25T22:31:16.927Z,10.80
2023-02-25T22:33:50.952Z,10.50
2023-02-25T22:36:21.864Z,12.30
2023-02-25T22:38:52.518Z,12.50
2023-02-25T22:41:24.505Z,12.10
2023-02-25T22:43:55.407Z,11.20
2023-02-25T22:46:27.988Z,12.20
2023-02-25T22:48:59.024Z,11.40
2023-02-25T22:51:31.375Z,11.10
2023-02-25T22:54:04.909Z,10.10
2023-02-25T22:56:35.739Z,11.80
2023-02-25T22:59:10.232Z,12.00
2023-02-25T23:03:28.662Z,11.60
2023-02-25T23:06:01.962Z,11.50
2023-02-25T23:08:34.378Z,11.10
2023-02-25T23:11:15.519Z,11.60
2023-02-25T23:13:47.665Z,11.40
2023-02-25T23:16:19.706Z,11.20
2023-02-25T23:18:52.395Z,11.40
2023-02-25T23:21:23.328Z,12.50
2023-02-25T23:23:55.995Z,11.00
2023-02-25T23:26:28.015Z,10.70
2023-02-25T23:28:59.901Z,12.00
2023-02-25T23:31:31.887Z,12.70
2023-02-25T23:34:04.846Z,10.70
2023-02-25T23:36:36.367Z,12.50
2023-02-25T23:39:07.702Z,11.80
2023-02-25T23:41:40.134Z,11.80
2023-02-25T23:44:12.335Z,12.80
2023-02-25T23:46:45.359Z,10.10
2023-02-25T23:49:18.776Z,11.20
2023-02-25T23:51:50.115Z,10.10
2023-02-25T23:54:21.568Z,12.90
2023-02-25T23:56:53.256Z,11.20
2023-02-25T23:59:27.806Z,10.70
